sensor_id;sensor_type;location;lat;lon;timestamp;temperature;humidity
21214;DHT22;10764;50.850;2.904;2023-01-16T00:01:51;18.30;49.00
21214;DHT22;10764;50.850;2.904;2023-01-16T00:04:18;18.30;49.00
21214;DHT22;10764;50.850;2.904;2023-01-16T00:06:45;18.30;49.00
21214;DHT22;10764;50.850;2.904;2023-01-16T00:09:12;18.30;49.70
21214;DHT22;10764;50.850;2.904;2023-01-16T00:11:39;18.30;49.10
21214;DHT22;10764;50.850;2.904;2023-01-16T00:14:06;18.30;49.10
21214;DHT22;10764;50.850;2.904;2023-01-16T00:16:33;18.40;49.20
21214;DHT22;10764;50.850;2.904;2023-01-16T00:19:00;18.20;49.00
21214;DHT22;10764;50.850;2.904;2023-01-16T00:21:27;18.30;49.10
21214;DHT22;10764;50.850;2.904;2023-01-16T00:23:56;18.30;49.80
21214;DHT22;10764;50.850;2.904;2023-01-16T00:26:24;18.80;49.40
21214;DHT22;10764;50.850;2.904;2023-01-16T00:28:52;18.20;49.10
21214;DHT22;10764;50.850;2.904;2023-01-16T00:31:19;18.30;49.20
21214;DHT22;10764;50.850;2.904;2023-01-16T00:33:46;18.30;49.20
21214;DHT22;10764;50.850;2.904;2023-01-16T00:36:13;18.30;49.20
21214;DHT22;10764;50.850;2.904;2023-01-16T00:38:40;18.30;49.20
21214;DHT22;10764;50.850;2.904;2023-01-16T00:41:07;18.30;49.20
21214;DHT22;10764;50.850;2.904;2023-01-16T00:43:34;18.30;49.20
21214;DHT22;10764;50.850;2.904;2023-01-16T00:46:01;18.20;49.20
21214;DHT22;10764;50.850;2.904;2023-01-16T00:48:28;18.30;49.30
21214;DHT22;10764;50.850;2.904;2023-01-16T00:50:54;18.30;49.30
21214;DHT22;10764;50.850;2.904;2023-01-16T00:53:21;18.40;49.40
21214;DHT22;10764;50.850;2.904;2023-01-16T00:55:51;18.30;49.30
21214;DHT22;10764;50.850;2.904;2023-01-16T00:58:18;18.30;49.40
21214;DHT22;10764;50.850;2.904;2023-01-16T01:00:45;18.30;49.40
21214;DHT22;10764;50.850;2.904;2023-01-16T01:03:12;18.80;49.70
21214;DHT22;10764;50.850;2.904;2023-01-16T01:05:38;18.30;49.50
21214;DHT22;10764;50.850;2.904;2023-01-16T01:08:05;18.40;49.50
21214;DHT22;10764;50.850;2.904;2023-01-16T01:10:35;18.30;49.50
21214;DHT22;10764;50.850;2.904;2023-01-16T01:13:02;18.30;49.50
21214;DHT22;10764;50.850;2.904;2023-01-16T01:15:28;18.20;49.50
21214;DHT22;10764;50.850;2.904;2023-01-16T01:17:55;18.60;49.80
21214;DHT22;10764;50.850;2.904;2023-01-16T01:20:22;18.60;49.80
21214;DHT22;10764;50.850;2.904;2023-01-16T01:22:49;18.20;49.70
21214;DHT22;10764;50.850;2.904;2023-01-16T01:25:16;18.20;49.70
21214;DHT22;10764;50.850;2.904;2023-01-16T01:27:42;18.20;49.70
21214;DHT22;10764;50.850;2.904;2023-01-16T01:30:10;18.30;49.80
21214;DHT22;10764;50.850;2.904;2023-01-16T01:32:37;18.20;49.80
21214;DHT22;10764;50.850;2.904;2023-01-16T01:35:07;18.20;49.80
21214;DHT22;10764;50.850;2.904;2023-01-16T01:37:35;18.20;49.80
21214;DHT22;10764;50.850;2.904;2023-01-16T01:40:03;18.20;49.90
21214;DHT22;10764;50.850;2.904;2023-01-16T01:42:39;18.20;49.80
21214;DHT22;10764;50.850;2.904;2023-01-16T01:53:17;18.20;49.90
21214;DHT22;10764;50.850;2.904;2023-01-16T01:55:46;18.20;49.90
21214;DHT22;10764;50.850;2.904;2023-01-16T01:58:16;18.30;50.00
21214;DHT22;10764;50.850;2.904;2023-01-16T02:00:54;18.20;49.90
21214;DHT22;10764;50.850;2.904;2023-01-16T02:03:30;18.30;49.90
21214;DHT22;10764;50.850;2.904;2023-01-16T02:06:00;18.20;49.90
21214;DHT22;10764;50.850;2.904;2023-01-16T02:08:31;18.30;50.00
21214;DHT22;10764;50.850;2.904;2023-01-16T02:11:03;18.30;50.00
21214;DHT22;10764;50.850;2.904;2023-01-16T02:13:31;18.20;50.00
21214;DHT22;10764;50.850;2.904;2023-01-16T02:15:58;18.20;50.00
21214;DHT22;10764;50.850;2.904;2023-01-16T02:18:44;18.30;50.10
21214;DHT22;10764;50.850;2.904;2023-01-16T02:27:47;18.30;50.10
21214;DHT22;10764;50.850;2.904;2023-01-16T02:33:41;18.30;50.10
21214;DHT22;10764;50.850;2.904;2023-01-16T02:37:02;18.20;50.10
21214;DHT22;10764;50.850;2.904;2023-01-16T02:42:07;18.20;50.10
21214;DHT22;10764;50.850;2.904;2023-01-16T02:44:40;18.30;50.10
21214;DHT22;10764;50.850;2.904;2023-01-16T02:52:52;18.20;50.10
21214;DHT22;10764;50.850;2.904;2023-01-16T02:57:57;18.40;50.20
21214;DHT22;10764;50.850;2.904;2023-01-16T03:00:27;18.10;50.00
21214;DHT22;10764;50.850;2.904;2023-01-16T03:02:54;18.40;50.10
21214;DHT22;10764;50.850;2.904;2023-01-16T03:05:22;18.30;50.10
21214;DHT22;10764;50.850;2.904;2023-01-16T03:11:22;18.30;50.00
21214;DHT22;10764;50.850;2.904;2023-01-16T03:13:55;18.30;50.00
21214;DHT22;10764;50.850;2.904;2023-01-16T03:22:35;18.30;50.10
21214;DHT22;10764;50.850;2.904;2023-01-16T03:25:45;18.30;50.30
21214;DHT22;10764;50.850;2.904;2023-01-16T03:28:22;18.30;50.00
21214;DHT22;10764;50.850;2.904;2023-01-16T03:31:17;18.30;50.00
21214;DHT22;10764;50.850;2.904;2023-01-16T03:33:54;18.30;50.00
21214;DHT22;10764;50.850;2.904;2023-01-16T03:39:42;18.30;50.00
21214;DHT22;10764;50.850;2.904;2023-01-16T03:42:35;18.30;50.00
21214;DHT22;10764;50.850;2.904;2023-01-16T03:45:19;18.30;50.00
21214;DHT22;10764;50.850;2.904;2023-01-16T03:47:56;18.70;50.10
21214;DHT22;10764;50.850;2.904;2023-01-16T03:50:26;18.30;49.90
21214;DHT22;10764;50.850;2.904;2023-01-16T03:52:56;18.30;49.90
21214;DHT22;10764;50.850;2.904;2023-01-16T03:58:07;18.30;49.90
21214;DHT22;10764;50.850;2.904;2023-01-16T04:01:00;18.30;49.90
21214;DHT22;10764;50.850;2.904;2023-01-16T04:03:40;18.30;49.90
21214;DHT22;10764;50.850;2.904;2023-01-16T04:06:29;18.30;49.80
21214;DHT22;10764;50.850;2.904;2023-01-16T04:08:59;18.30;49.90
21214;DHT22;10764;50.850;2.904;2023-01-16T04:11:27;18.20;49.80
21214;DHT22;10764;50.850;2.904;2023-01-16T04:13:57;18.30;49.80
21214;DHT22;10764;50.850;2.904;2023-01-16T04:16:24;18.30;49.80
21214;DHT22;10764;50.850;2.904;2023-01-16T04:18:53;18.30;49.80
21214;DHT22;10764;50.850;2.904;2023-01-16T04:21:26;18.30;49.80
21214;DHT22;10764;50.850;2.904;2023-01-16T04:23:55;18.30;49.80
21214;DHT22;10764;50.850;2.904;2023-01-16T04:26:23;18.30;49.80
21214;DHT22;10764;50.850;2.904;2023-01-16T04:28:50;18.70;50.00
21214;DHT22;10764;50.850;2.904;2023-01-16T04:31:22;18.30;49.80
21214;DHT22;10764;50.850;2.904;2023-01-16T04:33:50;18.30;49.80
21214;DHT22;10764;50.850;2.904;2023-01-16T04:36:20;18.30;49.80
21214;DHT22;10764;50.850;2.904;2023-01-16T04:38:46;18.30;49.80
21214;DHT22;10764;50.850;2.904;2023-01-16T04:41:13;18.30;49.80
21214;DHT22;10764;50.850;2.904;2023-01-16T04:44:00;18.30;49.90
21214;DHT22;10764;50.850;2.904;2023-01-16T04:46:27;18.30;49.90
21214;DHT22;10764;50.850;2.904;2023-01-16T04:48:54;18.30;49.80
21214;DHT22;10764;50.850;2.904;2023-01-16T04:51:21;18.30;49.80
21214;DHT22;10764;50.850;2.904;2023-01-16T04:53:48;18.20;49.80
21214;DHT22;10764;50.850;2.904;2023-01-16T04:56:14;18.30;49.80
21214;DHT22;10764;50.850;2.904;2023-01-16T04:58:41;18.30;49.80
21214;DHT22;10764;50.850;2.904;2023-01-16T05:01:09;18.30;49.80
21214;DHT22;10764;50.850;2.904;2023-01-16T05:03:36;19.30;50.30
21214;DHT22;10764;50.850;2.904;2023-01-16T05:06:02;18.30;49.80
21214;DHT22;10764;50.850;2.904;2023-01-16T05:08:30;18.30;49.90
21214;DHT22;10764;50.850;2.904;2023-01-16T05:10:56;18.60;50.00
21214;DHT22;10764;50.850;2.904;2023-01-16T05:13:28;18.70;50.10
21214;DHT22;10764;50.850;2.904;2023-01-16T05:15:56;18.30;49.80
21214;DHT22;10764;50.850;2.904;2023-01-16T05:18:23;18.10;49.70
21214;DHT22;10764;50.850;2.904;2023-01-16T05:20:50;18.30;49.90
21214;DHT22;10764;50.850;2.904;2023-01-16T05:23:17;18.30;49.80
21214;DHT22;10764;50.850;2.904;2023-01-16T05:25:44;18.30;49.80
21214;DHT22;10764;50.850;2.904;2023-01-16T05:28:11;18.30;49.90
21214;DHT22;10764;50.850;2.904;2023-01-16T05:30:38;18.30;49.80
21214;DHT22;10764;50.850;2.904;2023-01-16T05:33:07;18.30;49.80
21214;DHT22;10764;50.850;2.904;2023-01-16T05:35:34;18.30;49.80
21214;DHT22;10764;50.850;2.904;2023-01-16T05:38:01;18.30;49.80
21214;DHT22;10764;50.850;2.904;2023-01-16T05:40:27;18.20;49.80
21214;DHT22;10764;50.850;2.904;2023-01-16T05:42:54;18.30;49.90
21214;DHT22;10764;50.850;2.904;2023-01-16T05:45:21;18.30;50.00
21214;DHT22;10764;50.850;2.904;2023-01-16T05:47:48;18.30;50.00
21214;DHT22;10764;50.850;2.904;2023-01-16T05:50:16;18.20;49.80
21214;DHT22;10764;50.850;2.904;2023-01-16T05:52:43;18.30;49.90
21214;DHT22;10764;50.850;2.904;2023-01-16T05:55:10;18.20;49.80
21214;DHT22;10764;50.850;2.904;2023-01-16T05:57:36;18.30;49.90
21214;DHT22;10764;50.850;2.904;2023-01-16T06:00:04;18.30;49.90
21214;DHT22;10764;50.850;2.904;2023-01-16T06:02:32;18.30;49.90
21214;DHT22;10764;50.850;2.904;2023-01-16T06:04:59;18.30;49.90
21214;DHT22;10764;50.850;2.904;2023-01-16T06:07:26;18.30;49.90
21214;DHT22;10764;50.850;2.904;2023-01-16T06:09:53;18.30;49.90
21214;DHT22;10764;50.850;2.904;2023-01-16T06:12:20;18.20;49.80
21214;DHT22;10764;50.850;2.904;2023-01-16T06:14:47;18.70;50.10
21214;DHT22;10764;50.850;2.904;2023-01-16T06:17:15;18.30;49.90
21214;DHT22;10764;50.850;2.904;2023-01-16T06:19:43;18.30;49.90
21214;DHT22;10764;50.850;2.904;2023-01-16T06:22:12;18.30;49.90
21214;DHT22;10764;50.850;2.904;2023-01-16T06:24:39;18.30;49.90
21214;DHT22;10764;50.850;2.904;2023-01-16T06:27:06;18.30;50.00
21214;DHT22;10764;50.850;2.904;2023-01-16T06:29:33;18.30;50.00
21214;DHT22;10764;50.850;2.904;2023-01-16T06:32:00;18.30;49.90
21214;DHT22;10764;50.850;2.904;2023-01-16T06:34:27;18.30;49.90
21214;DHT22;10764;50.850;2.904;2023-01-16T06:36:54;18.50;50.00
21214;DHT22;10764;50.850;2.904;2023-01-16T06:39:21;18.30;49.80
21214;DHT22;10764;50.850;2.904;2023-01-16T06:41:47;18.30;49.90
21214;DHT22;10764;50.850;2.904;2023-01-16T06:44:14;18.30;49.90
21214;DHT22;10764;50.850;2.904;2023-01-16T06:46:41;18.50;50.00
21214;DHT22;10764;50.850;2.904;2023-01-16T06:49:10;18.40;49.90
21214;DHT22;10764;50.850;2.904;2023-01-16T06:51:37;18.20;49.90
21214;DHT22;10764;50.850;2.904;2023-01-16T06:54:04;18.30;49.90
21214;DHT22;10764;50.850;2.904;2023-01-16T06:56:31;18.30;49.90
21214;DHT22;10764;50.850;2.904;2023-01-16T06:58:58;18.30;49.90
21214;DHT22;10764;50.850;2.904;2023-01-16T07:01:24;18.30;49.80
21214;DHT22;10764;50.850;2.904;2023-01-16T07:03:51;18.30;49.80
21214;DHT22;10764;50.850;2.904;2023-01-16T07:06:18;18.30;49.80
21214;DHT22;10764;50.850;2.904;2023-01-16T07:08:45;18.30;49.80
21214;DHT22;10764;50.850;2.904;2023-01-16T07:11:15;18.30;49.80
21214;DHT22;10764;50.850;2.904;2023-01-16T07:13:42;18.30;49.70
21214;DHT22;10764;50.850;2.904;2023-01-16T07:16:11;18.20;49.70
21214;DHT22;10764;50.850;2.904;2023-01-16T07:18:57;18.20;49.60
21214;DHT22;10764;50.850;2.904;2023-01-16T07:21:44;18.20;49.70
21214;DHT22;10764;50.850;2.904;2023-01-16T07:24:34;18.30;49.70
21214;DHT22;10764;50.850;2.904;2023-01-16T07:27:03;18.20;49.60
21214;DHT22;10764;50.850;2.904;2023-01-16T07:29:32;18.30;49.60
21214;DHT22;10764;50.850;2.904;2023-01-16T07:32:02;18.30;49.60
21214;DHT22;10764;50.850;2.904;2023-01-16T07:34:30;18.20;49.50
21214;DHT22;10764;50.850;2.904;2023-01-16T07:36:57;18.30;49.60
21214;DHT22;10764;50.850;2.904;2023-01-16T07:39:23;18.20;49.50
21214;DHT22;10764;50.850;2.904;2023-01-16T07:41:50;18.20;49.50
21214;DHT22;10764;50.850;2.904;2023-01-16T07:44:23;18.10;49.50
21214;DHT22;10764;50.850;2.904;2023-01-16T07:46:50;18.20;49.50
21214;DHT22;10764;50.850;2.904;2023-01-16T07:49:17;18.10;49.40
21214;DHT22;10764;50.850;2.904;2023-01-16T07:51:44;18.20;49.40
21214;DHT22;10764;50.850;2.904;2023-01-16T07:54:11;18.10;49.40
21214;DHT22;10764;50.850;2.904;2023-01-16T07:56:38;18.10;49.30
21214;DHT22;10764;50.850;2.904;2023-01-16T07:59:05;18.10;49.20
21214;DHT22;10764;50.850;2.904;2023-01-16T08:01:32;18.10;49.20
21214;DHT22;10764;50.850;2.904;2023-01-16T08:03:59;18.10;49.10
21214;DHT22;10764;50.850;2.904;2023-01-16T08:06:26;18.20;49.20
21214;DHT22;10764;50.850;2.904;2023-01-16T08:08:53;18.10;49.00
21214;DHT22;10764;50.850;2.904;2023-01-16T08:11:20;18.10;49.00
21214;DHT22;10764;50.850;2.904;2023-01-16T08:14:03;18.20;49.00
21214;DHT22;10764;50.850;2.904;2023-01-16T08:16:30;18.20;49.00
21214;DHT22;10764;50.850;2.904;2023-01-16T08:18:56;18.10;48.90
21214;DHT22;10764;50.850;2.904;2023-01-16T08:21:23;18.10;48.90
21214;DHT22;10764;50.850;2.904;2023-01-16T08:23:50;18.20;49.00
21214;DHT22;10764;50.850;2.904;2023-01-16T08:26:17;18.10;48.80
21214;DHT22;10764;50.850;2.904;2023-01-16T08:28:44;18.10;48.80
21214;DHT22;10764;50.850;2.904;2023-01-16T08:31:12;18.90;49.10
21214;DHT22;10764;50.850;2.904;2023-01-16T08:33:42;18.10;48.70
21214;DHT22;10764;50.850;2.904;2023-01-16T08:36:10;18.20;48.70
21214;DHT22;10764;50.850;2.904;2023-01-16T08:38:38;18.70;48.90
21214;DHT22;10764;50.850;2.904;2023-01-16T08:41:05;18.10;48.60
21214;DHT22;10764;50.850;2.904;2023-01-16T08:43:52;18.20;48.60
21214;DHT22;10764;50.850;2.904;2023-01-16T08:46:38;18.20;48.60
21214;DHT22;10764;50.850;2.904;2023-01-16T08:49:25;18.20;48.50
21214;DHT22;10764;50.850;2.904;2023-01-16T08:52:10;18.20;48.50
21214;DHT22;10764;50.850;2.904;2023-01-16T08:54:38;18.20;48.50
21214;DHT22;10764;50.850;2.904;2023-01-16T08:57:05;18.20;48.40
21214;DHT22;10764;50.850;2.904;2023-01-16T08:59:32;18.30;48.40
21214;DHT22;10764;50.850;2.904;2023-01-16T09:02:01;18.30;48.40
21214;DHT22;10764;50.850;2.904;2023-01-16T09:04:28;18.30;48.50
21214;DHT22;10764;50.850;2.904;2023-01-16T09:06:55;18.30;48.40
21214;DHT22;10764;50.850;2.904;2023-01-16T09:09:22;18.30;48.40
21214;DHT22;10764;50.850;2.904;2023-01-16T09:11:54;18.30;48.40
21214;DHT22;10764;50.850;2.904;2023-01-16T09:14:39;18.40;48.50
21214;DHT22;10764;50.850;2.904;2023-01-16T09:17:07;18.40;48.40
21214;DHT22;10764;50.850;2.904;2023-01-16T09:19:34;18.30;48.30
21214;DHT22;10764;50.850;2.904;2023-01-16T09:22:03;18.40;48.40
21214;DHT22;10764;50.850;2.904;2023-01-16T09:24:33;18.40;48.50
21214;DHT22;10764;50.850;2.904;2023-01-16T09:27:01;18.30;48.40
21214;DHT22;10764;50.850;2.904;2023-01-16T09:29:29;18.30;48.40
21214;DHT22;10764;50.850;2.904;2023-01-16T09:31:57;18.30;48.40
21214;DHT22;10764;50.850;2.904;2023-01-16T09:34:24;18.30;48.40
21214;DHT22;10764;50.850;2.904;2023-01-16T09:36:51;18.40;48.50
21214;DHT22;10764;50.850;2.904;2023-01-16T09:39:18;18.40;48.60
21214;DHT22;10764;50.850;2.904;2023-01-16T09:44:50;18.40;48.80
21214;DHT22;10764;50.850;2.904;2023-01-16T09:47:21;18.40;48.80
21214;DHT22;10764;50.850;2.904;2023-01-16T09:50:01;18.40;48.90
21214;DHT22;10764;50.850;2.904;2023-01-16T09:52:32;18.40;48.90
21214;DHT22;10764;50.850;2.904;2023-01-16T09:55:25;18.40;48.90
21214;DHT22;10764;50.850;2.904;2023-01-16T09:58:18;18.40;49.00
21214;DHT22;10764;50.850;2.904;2023-01-16T10:01:19;18.40;49.00
21214;DHT22;10764;50.850;2.904;2023-01-16T10:03:47;18.30;48.90
21214;DHT22;10764;50.850;2.904;2023-01-16T10:06:35;18.20;48.90
21214;DHT22;10764;50.850;2.904;2023-01-16T10:09:14;18.30;48.90
21214;DHT22;10764;50.850;2.904;2023-01-16T10:11:58;18.20;48.90
21214;DHT22;10764;50.850;2.904;2023-01-16T10:28:20;18.40;49.00
21214;DHT22;10764;50.850;2.904;2023-01-16T10:33:47;18.30;49.00
21214;DHT22;10764;50.850;2.904;2023-01-16T10:36:20;18.30;48.90
21214;DHT22;10764;50.850;2.904;2023-01-16T10:38:52;18.30;49.00
21214;DHT22;10764;50.850;2.904;2023-01-16T10:41:29;18.30;49.00
21214;DHT22;10764;50.850;2.904;2023-01-16T10:44:23;18.30;49.00
21214;DHT22;10764;50.850;2.904;2023-01-16T10:47:13;18.30;49.00
21214;DHT22;10764;50.850;2.904;2023-01-16T10:50:01;18.20;48.90
21214;DHT22;10764;50.850;2.904;2023-01-16T10:52:29;18.20;49.00
21214;DHT22;10764;50.850;2.904;2023-01-16T10:54:57;18.30;49.00
21214;DHT22;10764;50.850;2.904;2023-01-16T10:57:26;19.00;49.30
21214;DHT22;10764;50.850;2.904;2023-01-16T10:59:57;18.20;48.90
21214;DHT22;10764;50.850;2.904;2023-01-16T11:02:53;18.90;49.30
21214;DHT22;10764;50.850;2.904;2023-01-16T11:05:30;18.10;49.50
21214;DHT22;10764;50.850;2.904;2023-01-16T11:08:24;18.20;48.90
21214;DHT22;10764;50.850;2.904;2023-01-16T11:10:50;18.20;48.90
21214;DHT22;10764;50.850;2.904;2023-01-16T11:13:23;18.20;48.80
21214;DHT22;10764;50.850;2.904;2023-01-16T11:18:58;18.10;48.70
21214;DHT22;10764;50.850;2.904;2023-01-16T11:21:30;18.50;48.90
21214;DHT22;10764;50.850;2.904;2023-01-16T11:24:03;18.20;48.70
21214;DHT22;10764;50.850;2.904;2023-01-16T11:26:35;18.20;48.70
21214;DHT22;10764;50.850;2.904;2023-01-16T11:29:02;18.10;48.60
21214;DHT22;10764;50.850;2.904;2023-01-16T11:31:29;18.20;48.70
21214;DHT22;10764;50.850;2.904;2023-01-16T11:34:02;18.00;48.60
21214;DHT22;10764;50.850;2.904;2023-01-16T11:36:33;18.20;48.70
21214;DHT22;10764;50.850;2.904;2023-01-16T11:39:03;18.20;48.70
21214;DHT22;10764;50.850;2.904;2023-01-16T11:41:37;18.20;48.80
21214;DHT22;10764;50.850;2.904;2023-01-16T11:47:02;18.20;48.80
21214;DHT22;10764;50.850;2.904;2023-01-16T11:49:40;18.20;48.80
21214;DHT22;10764;50.850;2.904;2023-01-16T11:52:13;18.20;48.80
21214;DHT22;10764;50.850;2.904;2023-01-16T11:54:40;18.20;48.80
21214;DHT22;10764;50.850;2.904;2023-01-16T11:57:13;18.20;48.80
21214;DHT22;10764;50.850;2.904;2023-01-16T11:59:55;18.10;48.70
21214;DHT22;10764;50.850;2.904;2023-01-16T12:11:43;18.20;48.60
21214;DHT22;10764;50.850;2.904;2023-01-16T12:14:21;18.20;48.90
21214;DHT22;10764;50.850;2.904;2023-01-16T12:19:44;18.10;48.60
21214;DHT22;10764;50.850;2.904;2023-01-16T12:34:13;18.20;48.50
21214;DHT22;10764;50.850;2.904;2023-01-16T12:42:15;18.40;48.50
21214;DHT22;10764;50.850;2.904;2023-01-16T12:56:38;18.10;48.40
21214;DHT22;10764;50.850;2.904;2023-01-16T13:01:54;18.00;48.40
21214;DHT22;10764;50.850;2.904;2023-01-16T13:04:24;18.20;48.40
21214;DHT22;10764;50.850;2.904;2023-01-16T13:06:56;18.10;48.30
21214;DHT22;10764;50.850;2.904;2023-01-16T13:09:35;18.20;48.40
21214;DHT22;10764;50.850;2.904;2023-01-16T13:12:23;18.00;48.20
21214;DHT22;10764;50.850;2.904;2023-01-16T13:15:22;18.10;48.20
21214;DHT22;10764;50.850;2.904;2023-01-16T13:20:47;18.00;48.10
21214;DHT22;10764;50.850;2.904;2023-01-16T13:23:41;18.00;48.10
21214;DHT22;10764;50.850;2.904;2023-01-16T13:26:12;18.00;48.10
21214;DHT22;10764;50.850;2.904;2023-01-16T13:29:13;19.00;48.60
21214;DHT22;10764;50.850;2.904;2023-01-16T13:31:50;18.00;48.10
21214;DHT22;10764;50.850;2.904;2023-01-16T13:34:41;18.00;47.90
21214;DHT22;10764;50.850;2.904;2023-01-16T13:40:12;18.00;47.70
21214;DHT22;10764;50.850;2.904;2023-01-16T13:43:06;18.00;47.70
21214;DHT22;10764;50.850;2.904;2023-01-16T13:45:56;18.00;47.60
21214;DHT22;10764;50.850;2.904;2023-01-16T13:48:31;18.00;47.60
21214;DHT22;10764;50.850;2.904;2023-01-16T13:51:00;18.10;47.60
21214;DHT22;10764;50.850;2.904;2023-01-16T13:53:30;18.10;47.60
21214;DHT22;10764;50.850;2.904;2023-01-16T13:56:13;18.40;47.80
21214;DHT22;10764;50.850;2.904;2023-01-16T13:58:44;18.10;47.60
21214;DHT22;10764;50.850;2.904;2023-01-16T14:06:50;18.10;47.70
21214;DHT22;10764;50.850;2.904;2023-01-16T14:12:35;18.10;47.70
21214;DHT22;10764;50.850;2.904;2023-01-16T14:15:16;18.20;47.80
21214;DHT22;10764;50.850;2.904;2023-01-16T14:18:12;18.10;47.80
21214;DHT22;10764;50.850;2.904;2023-01-16T14:20:44;18.10;47.80
21214;DHT22;10764;50.850;2.904;2023-01-16T14:23:19;18.10;47.80
21214;DHT22;10764;50.850;2.904;2023-01-16T14:26:08;18.20;47.90
21214;DHT22;10764;50.850;2.904;2023-01-16T14:28:38;18.20;47.90
21214;DHT22;10764;50.850;2.904;2023-01-16T14:31:20;18.20;47.90
21214;DHT22;10764;50.850;2.904;2023-01-16T14:33:47;18.20;47.90
21214;DHT22;10764;50.850;2.904;2023-01-16T14:36:14;18.20;47.90
21214;DHT22;10764;50.850;2.904;2023-01-16T14:38:45;18.30;48.00
21214;DHT22;10764;50.850;2.904;2023-01-16T14:41:16;18.20;47.90
21214;DHT22;10764;50.850;2.904;2023-01-16T14:44:20;18.20;47.90
21214;DHT22;10764;50.850;2.904;2023-01-16T15:01:29;18.20;48.00
21214;DHT22;10764;50.850;2.904;2023-01-16T15:04:22;18.20;48.00
21214;DHT22;10764;50.850;2.904;2023-01-16T15:06:56;18.20;47.90
21214;DHT22;10764;50.850;2.904;2023-01-16T15:09:27;18.20;47.90
21214;DHT22;10764;50.850;2.904;2023-01-16T15:12:00;18.20;48.00
21214;DHT22;10764;50.850;2.904;2023-01-16T15:14:28;18.20;48.00
21214;DHT22;10764;50.850;2.904;2023-01-16T15:22:58;18.20;48.00
21214;DHT22;10764;50.850;2.904;2023-01-16T15:31:27;18.20;48.00
21214;DHT22;10764;50.850;2.904;2023-01-16T15:34:16;18.20;48.00
21214;DHT22;10764;50.850;2.904;2023-01-16T15:36:47;18.20;48.00
21214;DHT22;10764;50.850;2.904;2023-01-16T15:39:39;18.20;48.00
21214;DHT22;10764;50.850;2.904;2023-01-16T15:42:29;18.20;48.00
21214;DHT22;10764;50.850;2.904;2023-01-16T15:50:58;18.20;48.00
21214;DHT22;10764;50.850;2.904;2023-01-16T15:53:54;18.20;48.00
21214;DHT22;10764;50.850;2.904;2023-01-16T15:58:51;18.30;48.10
21214;DHT22;10764;50.850;2.904;2023-01-16T16:01:30;18.20;48.00
21214;DHT22;10764;50.850;2.904;2023-01-16T16:03:59;18.20;48.00
21214;DHT22;10764;50.850;2.904;2023-01-16T16:06:28;18.20;48.00
21214;DHT22;10764;50.850;2.904;2023-01-16T16:08:57;18.20;48.00
21214;DHT22;10764;50.850;2.904;2023-01-16T16:11:30;18.40;48.20
21214;DHT22;10764;50.850;2.904;2023-01-16T16:14:32;18.20;48.00
21214;DHT22;10764;50.850;2.904;2023-01-16T16:17:26;18.20;48.00
21214;DHT22;10764;50.850;2.904;2023-01-16T16:20:35;18.20;48.00
21214;DHT22;10764;50.850;2.904;2023-01-16T16:23:24;18.20;48.00
21214;DHT22;10764;50.850;2.904;2023-01-16T16:25:59;18.20;48.00
21214;DHT22;10764;50.850;2.904;2023-01-16T16:31:02;18.20;48.00
21214;DHT22;10764;50.850;2.904;2023-01-16T16:33:31;18.30;48.00
21214;DHT22;10764;50.850;2.904;2023-01-16T16:36:03;18.20;48.00
21214;DHT22;10764;50.850;2.904;2023-01-16T16:38:40;18.20;48.00
21214;DHT22;10764;50.850;2.904;2023-01-16T16:43:49;18.10;47.90
21214;DHT22;10764;50.850;2.904;2023-01-16T16:48:55;18.10;47.90
21214;DHT22;10764;50.850;2.904;2023-01-16T16:51:27;18.10;47.80
21214;DHT22;10764;50.850;2.904;2023-01-16T16:53:57;18.10;47.80
21214;DHT22;10764;50.850;2.904;2023-01-16T16:56:27;18.10;47.90
21214;DHT22;10764;50.850;2.904;2023-01-16T16:58:56;18.20;48.00
21214;DHT22;10764;50.850;2.904;2023-01-16T17:01:34;18.10;47.90
21214;DHT22;10764;50.850;2.904;2023-01-16T17:04:04;18.10;47.90
21214;DHT22;10764;50.850;2.904;2023-01-16T17:06:34;18.10;47.90
21214;DHT22;10764;50.850;2.904;2023-01-16T17:09:02;18.10;47.80
21214;DHT22;10764;50.850;2.904;2023-01-16T17:11:30;18.60;48.10
21214;DHT22;10764;50.850;2.904;2023-01-16T17:13:57;18.10;47.80
21214;DHT22;10764;50.850;2.904;2023-01-16T17:16:25;18.10;47.70
21214;DHT22;10764;50.850;2.904;2023-01-16T17:19:42;19.00;48.20
21214;DHT22;10764;50.850;2.904;2023-01-16T17:21:44;18.10;47.70
21214;DHT22;10764;50.850;2.904;2023-01-16T17:24:22;18.10;47.70
21214;DHT22;10764;50.850;2.904;2023-01-16T17:26:49;18.30;47.70
21214;DHT22;10764;50.850;2.904;2023-01-16T17:29:16;18.40;47.70
21214;DHT22;10764;50.850;2.904;2023-01-16T17:31:45;18.10;47.60
21214;DHT22;10764;50.850;2.904;2023-01-16T17:34:13;18.10;47.60
21214;DHT22;10764;50.850;2.904;2023-01-16T17:36:40;18.10;47.50
21214;DHT22;10764;50.850;2.904;2023-01-16T17:39:07;18.10;47.50
21214;DHT22;10764;50.850;2.904;2023-01-16T17:41:36;18.00;47.40
21214;DHT22;10764;50.850;2.904;2023-01-16T17:44:25;18.10;47.40
21214;DHT22;10764;50.850;2.904;2023-01-16T17:47:18;18.20;47.50
21214;DHT22;10764;50.850;2.904;2023-01-16T17:49:45;18.10;47.40
21214;DHT22;10764;50.850;2.904;2023-01-16T17:52:30;18.20;47.40
21214;DHT22;10764;50.850;2.904;2023-01-16T17:54:56;18.10;47.30
21214;DHT22;10764;50.850;2.904;2023-01-16T17:57:42;18.10;47.30
21214;DHT22;10764;50.850;2.904;2023-01-16T18:00:09;18.10;47.30
21214;DHT22;10764;50.850;2.904;2023-01-16T18:02:38;18.10;47.20
21214;DHT22;10764;50.850;2.904;2023-01-16T18:05:05;18.10;47.20
21214;DHT22;10764;50.850;2.904;2023-01-16T18:07:32;18.10;47.20
21214;DHT22;10764;50.850;2.904;2023-01-16T18:09:59;18.80;47.50
21214;DHT22;10764;50.850;2.904;2023-01-16T18:12:26;18.10;47.10
21214;DHT22;10764;50.850;2.904;2023-01-16T18:15:11;18.20;47.20
21214;DHT22;10764;50.850;2.904;2023-01-16T18:17:57;18.10;47.10
21214;DHT22;10764;50.850;2.904;2023-01-16T18:20:24;18.10;47.10
21214;DHT22;10764;50.850;2.904;2023-01-16T18:22:51;18.10;47.10
21214;DHT22;10764;50.850;2.904;2023-01-16T18:25:18;18.00;47.10
21214;DHT22;10764;50.850;2.904;2023-01-16T18:27:45;18.10;47.10
21214;DHT22;10764;50.850;2.904;2023-01-16T18:30:12;18.10;47.10
21214;DHT22;10764;50.850;2.904;2023-01-16T18:32:39;18.00;47.00
21214;DHT22;10764;50.850;2.904;2023-01-16T18:35:07;18.00;47.00
21214;DHT22;10764;50.850;2.904;2023-01-16T18:40:05;18.00;47.00
21214;DHT22;10764;50.850;2.904;2023-01-16T18:42:51;18.00;47.00
21214;DHT22;10764;50.850;2.904;2023-01-16T18:45:36;18.30;47.10
21214;DHT22;10764;50.850;2.904;2023-01-16T18:48:22;18.00;47.00
21214;DHT22;10764;50.850;2.904;2023-01-16T18:51:11;18.10;47.10
21214;DHT22;10764;50.850;2.904;2023-01-16T18:53:57;17.90;47.00
21214;DHT22;10764;50.850;2.904;2023-01-16T18:56:47;18.00;47.00
21214;DHT22;10764;50.850;2.904;2023-01-16T18:59:38;18.10;47.10